Acton, Maine
Current Conditions -  °F | °C
As of 4:35 PM on Wednesday 17 Dec 2014 (Local Time) from KSFM Reporting Station
Broken Clouds Broken Clouds  
Wind Chill: 33°   Ceiling: 3000
Heat Index: 39°   Visibility: 10mi
Dew Point: 36°   Wind: 9mph
Humidity: 87%   Direction: 330°NNW
Pressure: 29.68"   Gusts: 17mph
Location:  43.53°N, 70.91°W
Report Text: KSFM 172135Z AUTO 33008G15KT 10SM FEW010 BKN030 04/02 A2968 RMK AO1
Loading
Personal Weather Stations






























Interactive Weather Map New forecast layout! Learn more

10-Day Weather Forecast

Advertisements
Track Severe Weather on mobile